createdAt,value
2023-05-05T00:01:07.962Z,53.50
2023-05-05T00:03:35.883Z,53.65
2023-05-05T00:06:03.066Z,53.87
2023-05-05T00:08:30.095Z,54.15
2023-05-05T00:10:57.079Z,54.32
2023-05-05T00:13:24.458Z,54.41
2023-05-05T00:15:52.066Z,54.46
2023-05-05T00:18:19.015Z,54.67
2023-05-05T00:20:51.760Z,54.81
2023-05-05T00:23:18.873Z,55.07
2023-05-05T00:25:45.653Z,55.22
2023-05-05T00:28:15.728Z,55.32
2023-05-05T00:30:47.579Z,55.30
2023-05-05T00:33:15.734Z,55.40
2023-05-05T00:35:47.779Z,55.59
2023-05-05T00:38:14.801Z,55.63
2023-05-05T00:40:41.848Z,55.56
2023-05-05T00:43:08.714Z,55.83
2023-05-05T00:45:37.049Z,56.01
2023-05-05T00:48:04.129Z,56.07
2023-05-05T00:50:31.865Z,56.05
2023-05-05T00:53:04.002Z,56.31
2023-05-05T00:55:32.318Z,56.35
2023-05-05T00:57:59.876Z,56.42
2023-05-05T01:00:27.556Z,56.37
2023-05-05T01:03:00.959Z,56.13
2023-05-05T01:05:32.214Z,56.21
2023-05-05T01:08:18.963Z,56.00
2023-05-05T01:11:11.941Z,55.67
2023-05-05T01:14:09.443Z,55.29
2023-05-05T01:16:36.819Z,55.34
2023-05-05T01:19:32.314Z,55.09
2023-05-05T01:22:00.290Z,55.34
2023-05-05T01:24:54.025Z,54.93
2023-05-05T01:27:34.665Z,54.74
2023-05-05T01:30:28.589Z,54.84
2023-05-05T01:32:58.919Z,54.87
2023-05-05T01:35:31.334Z,54.70
2023-05-05T01:38:02.586Z,54.40
2023-05-05T01:40:33.282Z,54.07
2023-05-05T01:43:00.173Z,54.22
2023-05-05T01:45:29.125Z,54.05
2023-05-05T01:47:56.005Z,53.84
2023-05-05T01:50:22.868Z,53.66
2023-05-05T01:52:50.178Z,53.37
2023-05-05T01:55:22.338Z,53.16
2023-05-05T01:57:49.480Z,52.91
2023-05-05T02:00:17.419Z,52.58
2023-05-05T02:02:46.060Z,52.52
2023-05-05T02:05:13.213Z,52.26
2023-05-05T02:07:40.429Z,52.40
2023-05-05T02:10:08.012Z,52.13
2023-05-05T02:12:36.089Z,52.79
2023-05-05T02:15:03.078Z,52.06
2023-05-05T02:17:30.155Z,51.85
2023-05-05T02:19:58.438Z,51.71
2023-05-05T02:22:25.809Z,52.33
2023-05-05T02:24:53.049Z,53.48
2023-05-05T02:27:20.335Z,53.29
2023-05-05T02:29:52.323Z,53.02
2023-05-05T02:32:35.987Z,52.27
2023-05-05T02:35:15.017Z,52.89
2023-05-05T02:37:48.252Z,52.94
2023-05-05T02:40:15.287Z,52.91
2023-05-05T02:42:43.010Z,51.90
2023-05-05T02:45:12.877Z,52.23
2023-05-05T02:47:41.689Z,52.40
2023-05-05T02:50:09.215Z,53.68
2023-05-05T02:52:38.244Z,53.48
2023-05-05T02:55:05.546Z,53.25
2023-05-05T02:57:41.155Z,54.12
2023-05-05T03:00:21.142Z,53.75
2023-05-05T03:03:18.412Z,53.18
2023-05-05T03:06:19.953Z,54.66
2023-05-05T03:08:55.098Z,55.02
2023-05-05T03:11:28.575Z,54.85
2023-05-05T03:14:03.985Z,54.99
2023-05-05T03:16:31.623Z,55.61
2023-05-05T03:18:59.086Z,56.32
2023-05-05T03:21:26.242Z,55.94
2023-05-05T03:23:53.019Z,55.50
2023-05-05T03:26:20.663Z,54.68
2023-05-05T03:28:47.706Z,54.73
2023-05-05T03:31:21.673Z,54.70
2023-05-05T03:33:51.860Z,54.77
2023-05-05T03:36:20.116Z,55.51
2023-05-05T03:38:47.535Z,57.02
2023-05-05T03:41:14.369Z,59.11
2023-05-05T03:43:41.254Z,59.52
2023-05-05T03:46:09.706Z,60.26
2023-05-05T03:48:36.849Z,60.30
2023-05-05T03:51:04.598Z,59.45
2023-05-05T03:53:32.849Z,59.19
2023-05-05T03:56:05.322Z,58.75
2023-05-05T03:58:32.777Z,58.64
2023-05-05T04:00:59.629Z,58.02
2023-05-05T04:03:26.642Z,57.26
2023-05-05T04:05:53.579Z,56.30
2023-05-05T04:08:21.240Z,53.95
2023-05-05T04:10:48.192Z,52.66
2023-05-05T04:13:15.862Z,51.97
2023-05-05T04:23:09.195Z,52.83
2023-05-05T04:25:36.836Z,53.54
2023-05-05T04:28:04.765Z,54.55
2023-05-05T04:30:32.776Z,53.96
2023-05-05T04:32:59.579Z,53.37
2023-05-05T04:35:26.438Z,52.45
2023-05-05T04:37:54.271Z,51.54
2023-05-05T04:40:21.221Z,50.36
2023-05-05T04:42:54.257Z,49.74
2023-05-05T04:45:22.725Z,49.77
2023-05-05T04:47:49.846Z,49.11
2023-05-05T04:50:18.200Z,48.87
2023-05-05T04:52:45.503Z,48.98
2023-05-05T04:55:12.369Z,49.22
2023-05-05T04:57:39.354Z,48.94
2023-05-05T05:00:07.982Z,49.13
2023-05-05T05:02:37.060Z,49.37
2023-05-05T05:05:05.108Z,49.15
2023-05-05T05:07:32.375Z,48.07
2023-05-05T05:09:59.406Z,47.50
2023-05-05T05:12:26.366Z,47.45
2023-05-05T05:14:53.572Z,48.36
2023-05-05T05:17:20.857Z,47.88
2023-05-05T05:19:47.765Z,46.43
2023-05-05T05:22:14.732Z,45.72
2023-05-05T05:24:42.667Z,45.96
2023-05-05T05:27:10.095Z,46.26
2023-05-05T05:29:38.514Z,45.48
2023-05-05T05:32:06.020Z,44.18
2023-05-05T05:34:34.054Z,43.41
2023-05-05T05:37:06.487Z,43.42
2023-05-05T05:39:35.945Z,42.63
2023-05-05T05:42:03.385Z,42.29
2023-05-05T05:44:32.282Z,41.93
2023-05-05T05:46:59.198Z,41.58
2023-05-05T05:49:26.474Z,41.26
2023-05-05T05:51:53.378Z,40.54
2023-05-05T05:54:20.298Z,41.11
2023-05-05T05:56:47.363Z,41.25
2023-05-05T05:59:15.473Z,40.48
2023-05-05T06:01:42.419Z,40.37
2023-05-05T06:04:09.371Z,40.39
2023-05-05T06:06:37.959Z,41.68
2023-05-05T06:09:04.851Z,44.08
2023-05-05T06:11:34.432Z,45.13
2023-05-05T06:14:01.777Z,45.92
2023-05-05T06:16:29.281Z,45.38
2023-05-05T06:18:57.001Z,45.27
2023-05-05T06:21:23.928Z,45.28
2023-05-05T06:23:51.853Z,42.78
2023-05-05T06:26:18.699Z,41.85
2023-05-05T06:28:45.570Z,41.79
2023-05-05T06:31:13.644Z,41.63
2023-05-05T06:33:40.655Z,41.82
2023-05-05T06:36:07.930Z,42.17
2023-05-05T06:38:36.193Z,41.63
2023-05-05T06:41:03.150Z,40.76
2023-05-05T06:43:30.676Z,40.25
2023-05-05T06:46:00.301Z,42.24
2023-05-05T06:48:27.517Z,44.23
2023-05-05T06:50:56.103Z,44.68
2023-05-05T06:53:23.021Z,44.67
2023-05-05T06:55:50.074Z,44.44
2023-05-05T06:58:17.129Z,43.70
2023-05-05T07:00:43.954Z,43.12
2023-05-05T07:03:11.173Z,42.43
2023-05-05T07:05:38.302Z,42.74
2023-05-05T07:08:06.265Z,42.73
2023-05-05T07:10:33.765Z,42.62
2023-05-05T07:13:00.878Z,41.52
2023-05-05T07:15:29.614Z,40.74
2023-05-05T07:17:56.998Z,40.98
2023-05-05T07:20:24.350Z,40.56
2023-05-05T07:22:51.644Z,40.83
2023-05-05T07:25:18.568Z,40.77
2023-05-05T07:27:45.747Z,41.59
2023-05-05T07:30:15.582Z,40.88
2023-05-05T07:32:45.259Z,41.04
2023-05-05T07:35:12.190Z,41.01
2023-05-05T07:37:39.031Z,41.44
2023-05-05T07:40:06.854Z,41.79
2023-05-05T07:42:35.376Z,41.11
2023-05-05T07:45:02.688Z,40.53
2023-05-05T07:47:29.787Z,39.39
2023-05-05T07:49:57.117Z,39.16
2023-05-05T07:52:37.418Z,39.63
2023-05-05T07:55:11.395Z,38.94
2023-05-05T07:57:38.810Z,38.25
2023-05-05T08:00:06.632Z,37.98
2023-05-05T08:02:54.204Z,37.93
2023-05-05T08:05:21.353Z,37.08
2023-05-05T08:07:48.393Z,37.08
2023-05-05T08:10:15.954Z,37.28
2023-05-05T08:12:43.028Z,37.53
2023-05-05T08:15:10.321Z,37.55
2023-05-05T08:17:50.925Z,38.25
2023-05-05T08:20:18.822Z,38.03
2023-05-05T08:22:45.908Z,37.64
2023-05-05T08:25:13.293Z,37.45
2023-05-05T08:27:41.135Z,37.26
2023-05-05T08:30:08.733Z,36.94
2023-05-05T08:32:37.943Z,36.02
2023-05-05T08:35:05.617Z,35.67
2023-05-05T08:37:32.788Z,35.58
2023-05-05T08:39:59.666Z,35.75
2023-05-05T08:42:37.122Z,35.59
2023-05-05T08:45:07.245Z,35.35
2023-05-05T08:47:35.520Z,34.82
2023-05-05T08:50:05.108Z,36.11
2023-05-05T08:52:43.348Z,35.41
2023-05-05T08:55:17.536Z,35.16
2023-05-05T08:57:56.983Z,33.14
2023-05-05T09:00:26.593Z,32.84
2023-05-05T09:02:58.202Z,32.72
2023-05-05T09:05:25.706Z,31.80
2023-05-05T09:07:52.623Z,30.61
2023-05-05T09:10:19.565Z,31.68
2023-05-05T09:12:49.011Z,30.67
2023-05-05T09:15:15.920Z,29.99
2023-05-05T09:17:43.742Z,28.62
2023-05-05T09:20:11.826Z,26.97
2023-05-05T09:22:39.423Z,26.96
2023-05-05T09:25:11.495Z,25.93
2023-05-05T09:27:42.760Z,24.46
2023-05-05T09:30:10.646Z,23.84
2023-05-05T09:32:49.631Z,23.11
2023-05-05T09:35:17.005Z,23.23
2023-05-05T09:37:43.978Z,21.65
2023-05-05T09:40:12.750Z,21.89
2023-05-05T09:42:39.929Z,21.92
2023-05-05T09:45:19.484Z,20.82
2023-05-05T09:47:46.517Z,19.74
2023-05-05T09:50:17.946Z,19.90
2023-05-05T09:52:55.497Z,19.77
2023-05-05T09:55:23.323Z,19.51
2023-05-05T09:57:50.233Z,19.76
2023-05-05T10:00:17.370Z,18.98
2023-05-05T10:02:45.160Z,18.88
2023-05-05T10:05:13.035Z,18.29
2023-05-05T10:07:42.351Z,17.89
2023-05-05T10:10:13.777Z,18.72
2023-05-05T10:12:41.544Z,18.98
2023-05-05T10:15:09.873Z,19.14
2023-05-05T10:17:50.964Z,19.23
2023-05-05T10:20:29.815Z,19.13
2023-05-05T10:22:56.676Z,18.78
2023-05-05T10:25:30.583Z,18.95
2023-05-05T10:27:59.212Z,19.23
2023-05-05T10:30:29.500Z,18.80
2023-05-05T10:33:22.299Z,18.51
2023-05-05T10:35:52.821Z,18.90
2023-05-05T10:38:20.222Z,18.53
2023-05-05T10:40:47.637Z,18.26
2023-05-05T10:43:14.812Z,18.28
2023-05-05T10:45:41.775Z,18.59
2023-05-05T10:48:12.425Z,18.53
2023-05-05T10:50:44.297Z,18.55
2023-05-05T10:53:27.592Z,18.41
2023-05-05T10:56:10.303Z,18.46
2023-05-05T10:58:51.087Z,18.35
2023-05-05T11:01:32.715Z,18.38
2023-05-05T11:04:19.481Z,17.37
2023-05-05T11:07:09.260Z,17.32
2023-05-05T11:09:57.362Z,17.11
2023-05-05T11:12:24.309Z,17.19
2023-05-05T11:15:29.060Z,17.33
2023-05-05T11:17:59.233Z,17.13
2023-05-05T11:20:35.606Z,16.83
2023-05-05T11:23:02.499Z,16.78
2023-05-05T11:25:39.977Z,17.26
2023-05-05T11:28:07.449Z,17.62
2023-05-05T11:30:35.492Z,17.88
2023-05-05T11:33:30.894Z,17.81
2023-05-05T11:35:58.306Z,17.57
2023-05-05T11:38:47.841Z,17.30
2023-05-05T11:41:29.900Z,16.85
2023-05-05T11:44:09.088Z,16.91
2023-05-05T11:46:36.180Z,16.75
2023-05-05T11:49:03.057Z,17.42
2023-05-05T11:51:30.482Z,17.77
2023-05-05T11:53:59.055Z,18.25
2023-05-05T11:56:26.074Z,18.26
2023-05-05T11:59:09.371Z,18.52
2023-05-05T12:01:40.419Z,18.62
2023-05-05T12:04:11.003Z,18.11
2023-05-05T12:06:38.716Z,17.93
2023-05-05T12:09:06.320Z,17.48
2023-05-05T12:11:33.180Z,17.29
2023-05-05T12:14:09.880Z,17.17
2023-05-05T12:16:37.345Z,16.81
2023-05-05T12:19:07.831Z,16.60
2023-05-05T12:21:35.156Z,16.78
2023-05-05T12:24:02.260Z,16.77
2023-05-05T12:26:32.235Z,17.13
2023-05-05T12:28:59.414Z,18.03
2023-05-05T12:31:39.151Z,18.46
2023-05-05T12:34:07.194Z,19.41
2023-05-05T12:36:35.461Z,20.23
2023-05-05T12:39:04.443Z,20.61
2023-05-05T12:41:31.797Z,20.57
2023-05-05T12:43:59.257Z,21.00
2023-05-05T12:46:26.196Z,21.59
2023-05-05T12:49:04.971Z,21.71
2023-05-05T12:51:33.473Z,21.67
2023-05-05T12:54:04.533Z,21.87
2023-05-05T12:56:42.002Z,22.19
2023-05-05T12:59:10.313Z,22.29
2023-05-05T13:01:47.966Z,22.46
2023-05-05T13:04:14.967Z,22.27
2023-05-05T13:06:43.531Z,22.26
2023-05-05T13:09:26.137Z,22.16
2023-05-05T13:11:53.891Z,22.06
2023-05-05T13:14:21.116Z,22.07
2023-05-05T13:16:48.133Z,22.13
2023-05-05T13:19:15.012Z,21.96
2023-05-05T13:21:41.845Z,21.77
2023-05-05T13:24:25.318Z,21.80
2023-05-05T13:26:56.002Z,21.73
2023-05-05T13:29:25.129Z,21.70
2023-05-05T13:31:52.938Z,21.78
2023-05-05T13:34:19.654Z,22.13
2023-05-05T13:36:51.522Z,21.73
2023-05-05T13:39:18.298Z,21.44
2023-05-05T13:41:45.124Z,21.66
2023-05-05T13:44:13.254Z,22.23
2023-05-05T13:46:46.195Z,22.52
2023-05-05T13:49:13.409Z,22.72
2023-05-05T13:51:40.480Z,22.87
2023-05-05T13:54:07.306Z,23.37
2023-05-05T13:56:34.457Z,23.78
2023-05-05T13:59:01.756Z,23.85
2023-05-05T14:01:29.147Z,24.14
2023-05-05T14:03:57.442Z,24.22
2023-05-05T14:06:25.283Z,24.03
2023-05-05T14:08:52.353Z,24.51
2023-05-05T14:11:20.189Z,24.34
2023-05-05T14:13:47.486Z,24.70
2023-05-05T14:16:14.251Z,24.87
2023-05-05T14:18:41.264Z,25.00
2023-05-05T14:21:08.200Z,25.12
2023-05-05T14:23:35.331Z,25.52
2023-05-05T14:26:02.196Z,25.90
2023-05-05T14:28:29.171Z,25.82
2023-05-05T14:30:56.153Z,25.99
2023-05-05T14:33:23.116Z,26.17
2023-05-05T14:35:49.929Z,26.51
2023-05-05T14:38:16.813Z,26.68
2023-05-05T14:40:43.766Z,26.91
2023-05-05T14:43:10.597Z,26.80
2023-05-05T14:45:37.529Z,26.51
2023-05-05T14:48:04.619Z,26.15
2023-05-05T14:50:31.557Z,25.96
2023-05-05T14:52:58.358Z,26.02
2023-05-05T14:55:25.560Z,25.72
2023-05-05T14:57:52.453Z,25.82
2023-05-05T15:00:19.290Z,25.73
2023-05-05T15:02:47.547Z,25.70
2023-05-05T15:05:14.448Z,25.82
2023-05-05T15:07:41.357Z,25.97
2023-05-05T15:10:08.674Z,26.28
2023-05-05T15:12:35.752Z,26.49
2023-05-05T15:15:02.827Z,26.03
2023-05-05T15:17:31.185Z,25.64
2023-05-05T15:19:58.349Z,24.89
2023-05-05T15:22:25.458Z,24.52
2023-05-05T15:24:52.655Z,24.54
2023-05-05T15:27:19.526Z,24.83
2023-05-05T15:29:46.377Z,25.09
2023-05-05T15:32:13.243Z,25.19
2023-05-05T15:34:40.292Z,25.32
2023-05-05T15:37:07.019Z,25.57
2023-05-05T15:39:33.981Z,25.31
2023-05-05T15:42:04.291Z,24.85
2023-05-05T15:44:31.316Z,24.99
2023-05-05T15:46:58.246Z,25.22
2023-05-05T15:49:25.118Z,25.19
2023-05-05T15:51:51.938Z,25.33
2023-05-05T15:54:23.829Z,25.27
2023-05-05T15:56:50.708Z,25.53
2023-05-05T15:59:18.607Z,26.00
2023-05-05T16:01:46.755Z,26.02
2023-05-05T16:04:14.161Z,26.31
2023-05-05T16:06:40.997Z,26.54
2023-05-05T16:09:08.175Z,26.49
2023-05-05T16:11:36.596Z,26.58
2023-05-05T16:14:03.508Z,26.79
2023-05-05T16:16:30.714Z,27.02
2023-05-05T16:18:57.628Z,27.01
2023-05-05T16:21:25.011Z,27.11
2023-05-05T16:23:51.946Z,27.27
2023-05-05T16:26:18.864Z,27.62
2023-05-05T16:28:45.645Z,27.54
2023-05-05T16:31:13.024Z,27.54
2023-05-05T16:33:48.128Z,27.56
2023-05-05T16:36:15.175Z,27.63
2023-05-05T16:38:43.114Z,27.77
2023-05-05T16:41:11.430Z,27.90
2023-05-05T16:43:38.526Z,28.07
2023-05-05T16:46:07.269Z,28.40
2023-05-05T16:48:35.243Z,28.62
2023-05-05T16:51:02.575Z,28.82
2023-05-05T16:53:29.593Z,29.15
2023-05-05T16:55:56.876Z,29.23
2023-05-05T16:58:24.277Z,29.51
2023-05-05T17:00:51.289Z,29.66
2023-05-05T17:03:19.721Z,29.87
2023-05-05T17:05:49.650Z,30.13
2023-05-05T17:08:17.039Z,30.19
2023-05-05T17:10:44.635Z,30.54
2023-05-05T17:13:12.547Z,30.93
2023-05-05T17:15:40.236Z,31.32
2023-05-05T17:18:07.934Z,31.50
2023-05-05T17:20:36.331Z,31.85
2023-05-05T17:23:04.449Z,32.30
2023-05-05T17:25:32.388Z,32.40
2023-05-05T17:28:04.520Z,32.38
2023-05-05T17:30:32.031Z,32.84
2023-05-05T17:33:00.217Z,32.82
2023-05-05T17:35:27.633Z,33.04
2023-05-05T17:37:54.725Z,33.26
2023-05-05T17:40:24.210Z,34.31
2023-05-05T17:42:55.034Z,34.86
2023-05-05T17:45:26.216Z,35.97
2023-05-05T17:47:57.319Z,37.31
2023-05-05T17:50:27.190Z,38.33
2023-05-05T17:52:57.232Z,39.61
2023-05-05T17:55:30.630Z,41.28
2023-05-05T17:58:00.250Z,42.90
2023-05-05T18:00:30.239Z,43.74
2023-05-05T18:03:01.363Z,45.17
2023-05-05T18:05:37.240Z,46.42
2023-05-05T18:08:07.256Z,47.68
2023-05-05T18:10:37.226Z,48.35
2023-05-05T18:13:08.329Z,48.68
2023-05-05T18:15:40.253Z,49.31
2023-05-05T18:18:11.322Z,49.91
2023-05-05T18:20:43.218Z,50.89
2023-05-05T18:23:13.753Z,51.61
2023-05-05T18:25:49.521Z,52.32
2023-05-05T18:28:18.048Z,52.89
2023-05-05T18:30:49.193Z,53.60
2023-05-05T18:33:26.056Z,53.93
2023-05-05T18:35:57.231Z,54.77
2023-05-05T18:38:28.308Z,55.37
2023-05-05T18:49:12.839Z,56.55
2023-05-05T18:51:39.758Z,57.96
2023-05-05T18:54:11.826Z,58.97
2023-05-05T18:56:43.803Z,59.00
2023-05-05T18:59:11.168Z,59.52
2023-05-05T19:01:38.222Z,60.10
2023-05-05T19:04:08.416Z,60.91
2023-05-05T19:06:39.901Z,62.43
2023-05-05T19:09:06.749Z,63.14
2023-05-05T19:11:33.686Z,63.50
2023-05-05T19:14:02.095Z,64.26
2023-05-05T19:16:30.141Z,64.63
2023-05-05T19:18:59.417Z,65.36
2023-05-05T19:21:26.978Z,65.72
2023-05-05T19:23:59.010Z,66.47
2023-05-05T19:26:26.423Z,67.65
2023-05-05T19:28:58.911Z,68.27
2023-05-05T19:31:30.187Z,68.83
2023-05-05T19:34:04.263Z,69.36
2023-05-05T19:36:31.565Z,69.69
2023-05-05T19:39:01.124Z,70.49
2023-05-05T19:41:29.157Z,71.17
2023-05-05T19:43:56.615Z,71.93
2023-05-05T19:46:25.941Z,72.53
2023-05-05T19:48:52.762Z,73.15
2023-05-05T19:51:19.622Z,73.49
2023-05-05T19:53:46.467Z,73.77
2023-05-05T19:56:13.383Z,74.50
2023-05-05T19:59:01.074Z,75.06
2023-05-05T20:01:29.298Z,76.37
2023-05-05T20:03:56.646Z,76.55
2023-05-05T20:06:23.691Z,76.85
2023-05-05T20:08:50.605Z,77.21
2023-05-05T20:11:17.704Z,77.16
2023-05-05T20:13:45.922Z,77.41
2023-05-05T20:16:13.192Z,77.78
2023-05-05T20:18:40.272Z,78.26
2023-05-05T20:21:07.055Z,78.14
2023-05-05T20:23:36.166Z,79.00
2023-05-05T20:26:02.935Z,79.00
2023-05-05T20:28:33.448Z,79.34
2023-05-05T20:31:00.791Z,79.51
2023-05-05T20:33:28.138Z,80.36
2023-05-05T20:35:55.046Z,80.61
2023-05-05T20:38:22.007Z,80.94
2023-05-05T20:40:49.552Z,81.67
2023-05-05T20:43:17.145Z,82.05
2023-05-05T20:45:44.082Z,82.18
2023-05-05T20:48:10.916Z,82.96
2023-05-05T20:50:38.710Z,83.37
2023-05-05T20:53:14.157Z,83.49
2023-05-05T20:55:41.129Z,84.24
2023-05-05T20:58:07.968Z,84.11
2023-05-05T21:00:35.821Z,83.82
2023-05-05T21:03:04.380Z,84.01
2023-05-05T21:05:32.447Z,84.03
2023-05-05T21:08:01.187Z,84.07
2023-05-05T21:10:28.675Z,84.54
2023-05-05T21:12:55.991Z,84.63
2023-05-05T21:15:23.349Z,84.78
2023-05-05T21:17:50.628Z,85.09
2023-05-05T21:20:29.211Z,85.61
2023-05-05T21:22:56.074Z,86.35
2023-05-05T21:25:23.288Z,86.59
2023-05-05T21:27:50.165Z,87.10
2023-05-05T21:30:17.486Z,87.34
2023-05-05T21:32:44.867Z,87.80
2023-05-05T21:35:12.078Z,88.46
2023-05-05T21:37:38.965Z,88.41
2023-05-05T21:40:13.007Z,88.59
2023-05-05T21:42:40.722Z,89.05
2023-05-05T21:45:08.478Z,88.67
2023-05-05T21:47:35.764Z,88.74
2023-05-05T21:50:09.128Z,88.64
2023-05-05T21:52:36.932Z,88.89
2023-05-05T21:55:04.132Z,88.92
2023-05-05T21:57:31.344Z,89.41
2023-05-05T21:59:58.166Z,88.96
2023-05-05T22:02:25.062Z,88.47
2023-05-05T22:04:51.975Z,88.29
2023-05-05T22:07:18.977Z,88.34
2023-05-05T22:09:45.980Z,88.12
2023-05-05T22:12:13.115Z,88.39
2023-05-05T22:14:40.223Z,88.63
2023-05-05T22:17:07.109Z,88.45
2023-05-05T22:19:39.028Z,88.56
2023-05-05T22:22:06.480Z,89.12
2023-05-05T22:24:33.644Z,89.30
2023-05-05T22:27:01.486Z,89.36
2023-05-05T22:29:28.704Z,90.21
2023-05-05T22:31:55.615Z,90.61
2023-05-05T22:34:23.368Z,90.83
2023-05-05T22:36:50.129Z,90.78
2023-05-05T22:39:17.983Z,90.77
2023-05-05T22:41:44.735Z,90.88
2023-05-05T22:44:11.876Z,91.10
2023-05-05T22:46:38.664Z,91.28
2023-05-05T22:49:06.153Z,91.10
2023-05-05T22:51:34.207Z,91.27
2023-05-05T22:54:01.352Z,91.27
2023-05-05T22:56:28.329Z,91.31
2023-05-05T22:58:55.256Z,91.40
2023-05-05T23:01:22.111Z,91.53
2023-05-05T23:03:49.168Z,91.42
2023-05-05T23:06:16.255Z,91.48
2023-05-05T23:08:43.095Z,91.65
2023-05-05T23:11:11.125Z,91.39
2023-05-05T23:13:38.042Z,90.93
2023-05-05T23:16:05.357Z,90.81
2023-05-05T23:18:33.037Z,91.17
2023-05-05T23:20:59.968Z,90.92
2023-05-05T23:23:26.865Z,90.58
2023-05-05T23:25:53.672Z,90.23
2023-05-05T23:28:25.935Z,89.95
2023-05-05T23:30:53.095Z,89.70
2023-05-05T23:33:19.929Z,89.07
2023-05-05T23:35:47.058Z,88.92
2023-05-05T23:38:14.513Z,89.19
2023-05-05T23:40:41.362Z,89.20
2023-05-05T23:43:08.283Z,89.59
2023-05-05T23:45:35.169Z,89.85
2023-05-05T23:48:02.319Z,89.94
2023-05-05T23:50:29.912Z,90.33
2023-05-05T23:52:56.752Z,90.36
2023-05-05T23:55:23.785Z,90.50
2023-05-05T23:57:52.835Z,90.60
